This is the latest recevied weather packets stored in our database for station/object DO7CRZ-11. If no packets are shown the sender has not sent any weather packets the latest 10 day(s).
| Time | Temp. | Humidity | Pressure | Rain* | Wind** | Luminosity | Snow |
|---|---|---|---|---|---|---|---|
| 1777710730 | 22.22° C | 36% | 1024.5 hPa | 0 mm | - | 571 W/m² | - |
| 1777710133 | 22.22° C | 38% | 1024.5 hPa | 0 mm | - | 554 W/m² | - |
| 1777708930 | 21.67° C | 42% | 1024.7 hPa | 0 mm | - | 514 W/m² | - |
| 1777708332 | 21.11° C | 43% | 1024.8 hPa | 0 mm | - | 492 W/m² | - |
| 1777707736 | 21.11° C | 45% | 1024.8 hPa | 0 mm | - | 470 W/m² | - |
| 1777707128 | 20.56° C | 47% | 1024.8 hPa | 0 mm | - | 446 W/m² | - |
| 1777706531 | 20° C | 48% | 1024.8 hPa | 0 mm | - | 422 W/m² | - |
| 1777705934 | 19.44° C | 50% | 1024.8 hPa | 0 mm | - | 396 W/m² | - |
| 1777705327 | 18.89° C | 52% | 1024.9 hPa | 0 mm | - | 371 W/m² | - |
| 1777704729 | 18.33° C | 54% | 1025 hPa | 0 mm | - | 344 W/m² | - |
| 1777704133 | 17.78° C | 58% | 1024.9 hPa | 0 mm | - | 318 W/m² | - |
| 1777703535 | 17.22° C | 61% | 1025 hPa | 0 mm | - | 291 W/m² | - |
| 1777702928 | 16.11° C | 64% | 1025.1 hPa | 0 mm | - | 264 W/m² | - |
| 1777702331 | 15.56° C | 68% | 1025 hPa | 0 mm | - | 237 W/m² | - |
| 1777701734 | 14.44° C | 70% | 1024.9 hPa | 0 mm | - | 208 W/m² | - |
| 1777701127 | 13.33° C | 74% | 1024.9 hPa | 0 mm | - | 181 W/m² | - |
| 1777700530 | 12.22° C | 77% | 1024.9 hPa | 0 mm | - | 155 W/m² | - |
| 1777699934 | 11.11° C | 80% | 1024.9 hPa | 0 mm | - | 131 W/m² | - |
| 1777699326 | 9.44° C | 83% | 1024.9 hPa | 0 mm | - | 89 W/m² | - |
| 1777698133 | 7.22° C | 85% | 1024.7 hPa | 0 mm | - | 34 W/m² | - |
| 1777697536 | 6.11° C | 84% | 1024.7 hPa | 0 mm | - | 44 W/m² | - |
| 1777696928 | 5.56° C | 84% | 1024.7 hPa | 0 mm | - | 35 W/m² | - |
| 1777695734 | 5° C | 83% | 1024.6 hPa | 0 mm | - | 22 W/m² | - |
| 1777695128 | 5° C | 83% | 1024.7 hPa | 0 mm | - | 17 W/m² | - |
| 1777694530 | 5° C | 83% | 1024.8 hPa | 0 mm | - | 13 W/m² | - |
* Rain latest hour (hover to see other rain measurements)
** Current wind speed in m/s (hover to see current wind gust speed)